1885 NOT_NAMED (1885060S15069)


IBTrACS version v04r00. Visit IBTrACS website for data access.
Please direct all questions to the IBTrACS Q and A forum

Storm track - Intensity - Wind Radii - Intensity Data - Source Data - All data

Summary Information

Storm ID 1885060S15069
Start Mar 1 06Z
End Mar 7 06Z
ATCF IDs
Track status Best track data.

Storm track plot

Map of storm track

Intensity plots

No Intensity information for this storm


Radial wind information

No radial wind information for this storm


Position and Intensity Table

BASIN ISO_TIME_________ NATURE LAT LON
degrees north degrees east
SI 1885-03-01 06:00:00 NR -14.60 69.20
SI 09:00:00 NR -14.77 69.07
SI 12:00:00 NR -14.94 68.94
SI 15:00:00 NR -15.12 68.81
SI 18:00:00 NR -15.30 68.70
SI 21:00:00 NR -15.49 68.60
SI 1885-03-02 00:00:00 NR -15.68 68.51
SI 03:00:00 NR -15.89 68.41
SI 06:00:00 NR -16.10 68.30
SI 09:00:00 NR -16.32 68.16
SI 12:00:00 NR -16.55 68.01
SI 15:00:00 NR -16.78 67.85
SI 18:00:00 NR -17.00 67.70
SI 21:00:00 NR -17.22 67.56
SI 1885-03-03 00:00:00 NR -17.42 67.43
SI 03:00:00 NR -17.62 67.31
SI 06:00:00 NR -17.80 67.20
SI 09:00:00 NR -17.96 67.11
SI 12:00:00 NR -18.11 67.03
SI 15:00:00 NR -18.26 66.97
SI 18:00:00 NR -18.40 66.90
SI 21:00:00 NR -18.54 66.82
SI 1885-03-04 00:00:00 NR -18.68 66.75
SI 03:00:00 NR -18.84 66.67
SI 06:00:00 NR -19.00 66.60
SI 09:00:00 NR -19.19 66.53
SI 12:00:00 NR -19.40 66.45
SI 15:00:00 NR -19.61 66.38
SI 18:00:00 NR -19.80 66.30
SI 21:00:00 NR -19.96 66.23
SI 1885-03-05 00:00:00 NR -20.10 66.16
SI 03:00:00 NR -20.24 66.08
SI 06:00:00 NR -20.40 66.00
SI 09:00:00 NR -20.59 65.90
SI 12:00:00 NR -20.80 65.80
SI 15:00:00 NR -21.01 65.70
SI 18:00:00 NR -21.20 65.60
SI 21:00:00 NR -21.34 65.52
SI 1885-03-06 00:00:00 NR -21.47 65.44
SI 03:00:00 NR -21.61 65.37
SI 06:00:00 NR -21.80 65.30
SI 09:00:00 NR -22.05 65.22
SI 12:00:00 NR -22.35 65.15
SI 15:00:00 NR -22.67 65.07
SI 18:00:00 NR -23.00 65.00
SI 21:00:00 NR -23.33 64.93
SI 1885-03-07 00:00:00 NR -23.66 64.85
SI 03:00:00 NR -23.98 64.78
SI 06:00:00 NR -24.30 64.70

Source Information

Agency Information
USA
TOKYO
CMA
HKO
NEWDELHI
REUNION
BOM
NADI
WELLINGTON
DS824
TD9636 cons_worldwide_trop_cyclone_18710101-19891231-005:Line=1909
TD9635
NEUMANN
MLC

All available IBTrACS Data

SEASON BASIN SUBBASIN ISO_TIME_________ NATURE LAT LON DIST2LAND LANDFALL IFLAG USA SSHS TD9636 LAT TD9636 LON TD9636 STAGE STORM SPEED STORM DIR
Year degrees north degrees east km km 1 degrees north degrees east kts degrees
1885 SI MM 1885-03-01 06:00:00 NR -14.60 69.20 1366 1346 __________O___ -1 -14.60 69.20 7 4 218
1885 SI MM 09:00:00 NR -14.77 69.07 1346 1322 __________P___ -1 -14.77 69.07 7 4 217
1885 SI MM 12:00:00 NR -14.94 68.94 1322 1301 __________P___ -1 -14.94 68.94 7 4 215
1885 SI MM 15:00:00 NR -15.12 68.81 1301 1282 __________P___ -1 -15.12 68.81 7 4 213
1885 SI MM 18:00:00 NR -15.30 68.70 1282 1262 __________O___ -1 -15.30 68.70 7 4 209
1885 SI MM 21:00:00 NR -15.49 68.60 1262 1242 __________P___ -1 -15.49 68.60 7 4 206
1885 SI MM 1885-03-02 00:00:00 NR -15.68 68.51 1242 1223 __________P___ -1 -15.68 68.51 7 4 205
1885 SI MM 03:00:00 NR -15.89 68.41 1223 1204 __________P___ -1 -15.89 68.41 7 5 205
1885 SI MM 06:00:00 NR -16.10 68.30 1204 1185 __________O___ -1 -16.10 68.30 7 5 209
1885 SI MM 09:00:00 NR -16.32 68.16 1185 1156 __________P___ -1 -16.32 68.16 7 5 212
1885 SI MM 12:00:00 NR -16.55 68.01 1152 1134 __________P___ -1 -16.55 68.01 7 5 213
1885 SI MM 15:00:00 NR -16.78 67.85 1134 1106 __________P___ -1 -16.78 67.85 7 5 213
1885 SI MM 18:00:00 NR -17.00 67.70 1106 1088 __________O___ -1 -17.00 67.70 7 5 213
1885 SI MM 21:00:00 NR -17.22 67.56 1088 1060 __________P___ -1 -17.22 67.56 7 5 212
1885 SI MM 1885-03-03 00:00:00 NR -17.42 67.43 1060 1043 __________P___ -1 -17.42 67.43 7 5 211
1885 SI MM 03:00:00 NR -17.62 67.31 1043 1026 __________P___ -1 -17.62 67.31 7 4 210
1885 SI MM 06:00:00 NR -17.80 67.20 1026 1010 __________O___ -1 -17.80 67.20 7 4 208
1885 SI MM 09:00:00 NR -17.96 67.11 1010 996 __________P___ -1 -17.96 67.11 7 4 206
1885 SI MM 12:00:00 NR -18.11 67.03 996 990 __________P___ -1 -18.11 67.03 7 3 205
1885 SI MM 15:00:00 NR -18.26 66.97 990 977 __________P___ -1 -18.26 66.97 7 3 204
1885 SI MM 18:00:00 NR -18.40 66.90 977 965 __________O___ -1 -18.40 66.90 7 3 205
1885 SI MM 21:00:00 NR -18.54 66.82 965 960 __________P___ -1 -18.54 66.82 7 3 207
1885 SI MM 1885-03-04 00:00:00 NR -18.68 66.75 949 947 __________P___ -1 -18.68 66.75 7 3 206
1885 SI MM 03:00:00 NR -18.84 66.67 947 932 __________P___ -1 -18.84 66.67 7 3 204
1885 SI MM 06:00:00 NR -19.00 66.60 932 918 __________O___ -1 -19.00 66.60 7 4 202
1885 SI MM 09:00:00 NR -19.19 66.53 918 915 __________P___ -1 -19.19 66.53 7 4 199
1885 SI MM 12:00:00 NR -19.40 66.45 915 902 __________P___ -1 -19.40 66.45 7 4 199
1885 SI MM 15:00:00 NR -19.61 66.38 902 889 __________P___ -1 -19.61 66.38 7 4 199
1885 SI MM 18:00:00 NR -19.80 66.30 889 878 __________O___ -1 -19.80 66.30 7 4 201
1885 SI MM 21:00:00 NR -19.96 66.23 877 876 __________P___ -1 -19.96 66.23 7 3 203
1885 SI MM 1885-03-05 00:00:00 NR -20.10 66.16 876 865 __________P___ -1 -20.10 66.16 7 3 206
1885 SI MM 03:00:00 NR -20.24 66.08 865 854 __________P___ -1 -20.24 66.08 7 3 207
1885 SI MM 06:00:00 NR -20.40 66.00 854 844 __________O___ -1 -20.40 66.00 7 4 205
1885 SI MM 09:00:00 NR -20.59 65.90 844 834 __________P___ -1 -20.59 65.90 7 4 205
1885 SI MM 12:00:00 NR -20.80 65.80 834 824 __________P___ -1 -20.80 65.80 7 5 205
1885 SI MM 15:00:00 NR -21.01 65.70 825 816 __________P___ -1 -21.01 65.70 7 4 205
1885 SI MM 18:00:00 NR -21.20 65.60 817 807 __________O___ -1 -21.20 65.60 7 4 207
1885 SI MM 21:00:00 NR -21.34 65.52 807 800 __________P___ -1 -21.34 65.52 7 3 209
1885 SI MM 1885-03-06 00:00:00 NR -21.47 65.44 800 800 __________P___ -1 -21.47 65.44 7 3 206
1885 SI MM 03:00:00 NR -21.61 65.37 802 793 __________P___ -1 -21.61 65.37 7 4 202
1885 SI MM 06:00:00 NR -21.80 65.30 795 790 __________O___ -1 -21.80 65.30 7 5 197
1885 SI MM 09:00:00 NR -22.05 65.22 792 792 __________P___ -1 -22.05 65.22 7 6 194
1885 SI MM 12:00:00 NR -22.35 65.15 798 788 __________P___ -1 -22.35 65.15 7 6 192
1885 SI MM 15:00:00 NR -22.67 65.07 801 795 __________P___ -1 -22.67 65.07 7 7 192
1885 SI MM 18:00:00 NR -23.00 65.00 802 801 __________O___ -1 -23.00 65.00 7 7 192
1885 SI MM 21:00:00 NR -23.33 64.93 805 805 __________P___ -1 -23.33 64.93 7 7 192
1885 SI MM 1885-03-07 00:00:00 NR -23.66 64.85 823 813 __________P___ -1 -23.66 64.85 7 7 192
1885 SI MM 03:00:00 NR -23.98 64.78 828 824 __________P___ -1 -23.98 64.78 7 7 192
1885 SI MM 06:00:00 NR -24.30 64.70 835 __________O___ -1 -24.30 64.70 7 7 192